OICI 
Ilam Airport
Ilam, Iran 
ICAOIATAStatus
OICIIILOperational
LatitudeLongitude
33° 35' 11" N46° 24' 17" E
33.58660146.404800
Local Time (DST+5)UTC (GMT+4)
04-18-2014 10:45 pm04-18-2014 18:15
Sunrise-SunsetLocalUTC
Begin Civil Twilight06:22 am01:52
Sunrise06:48 am02:18
Sunset07:58 pm15:28
End Civil Twilight08:24 pm15:54

Current Weather

METARObservedFlight Conditions

OICI 181800Z 00000KT CAVOK 17/09 Q1018 A3009

Fri, Apr 18, 2014 @ 18:00 UTC(Z)

(15 Minutes ago)

VFR

(Visual Flight Rules)

WindVisibilityCloudsConditions
Calm
10 km or more
  • Clear skies
  • No significant weather
TemperaturesReadingsPrecipitation
Current Temp17°C (63°F)
Dewpoint9°C (48°F)
Humidity59%
Altimeter30.06"Hg
Sea Level Pressure1018mb
Field Elevation4406.17'
None Recorded

Additional weather within a 185.2km radius of OICI

Location METAR
OICC

109.3km N (039°)

15 minutes ago
OICK

174.8km E (095°)

4 hours, 45 minutes ago
VFR VFR    MVFR MVFR    IFR IFR    LIFR LIFR    Unknown Unknown

Previous 24 hour Weather Graphs

  Loading...

CheckWX.com is intended as a tool to help pilots better visualize weather data.   It is not intended as a substitute for an official weather briefing obtained from a Flight Service Station.
CheckWX.com does not meet the FAA requirements for an official pre-flight weather briefing.   Therefore, it's important that pilots still call and obtain an official FSS pre-flight weather briefing.